sensor_id;sensor_type;location;lat;lon;timestamp;pressure;altitude;pressure_sealevel;temperature;humidity
62708;BME280;48769;51.624;5.886;2023-04-07T00:00:19;101241.63;;;9.09;100.00
62708;BME280;48769;51.624;5.886;2023-04-07T00:02:45;101243.97;;;9.17;100.00
62708;BME280;48769;51.624;5.886;2023-04-07T00:05:11;101249.06;;;9.21;100.00
62708;BME280;48769;51.624;5.886;2023-04-07T00:07:36;101252.53;;;9.22;100.00
62708;BME280;48769;51.624;5.886;2023-04-07T00:10:02;101248.19;;;9.21;100.00
62708;BME280;48769;51.624;5.886;2023-04-07T00:12:27;101244.72;;;9.20;100.00
62708;BME280;48769;51.624;5.886;2023-04-07T00:14:52;101250.72;;;9.24;100.00
62708;BME280;48769;51.624;5.886;2023-04-07T00:17:18;101247.38;;;9.19;100.00
62708;BME280;48769;51.624;5.886;2023-04-07T00:19:44;101247.38;;;9.19;100.00
62708;BME280;48769;51.624;5.886;2023-04-07T00:22:09;101250.88;;;9.19;100.00
62708;BME280;48769;51.624;5.886;2023-04-07T00:24:34;101250.72;;;9.24;100.00
62708;BME280;48769;51.624;5.886;2023-04-07T00:27:00;101260.66;;;9.17;100.00
62708;BME280;48769;51.624;5.886;2023-04-07T00:29:25;101250.94;;;9.18;100.00
62708;BME280;48769;51.624;5.886;2023-04-07T00:31:50;101250.09;;;9.17;100.00
62708;BME280;48769;51.624;5.886;2023-04-07T00:34:16;101261.50;;;9.18;100.00
62708;BME280;48769;51.624;5.886;2023-04-07T00:36:41;101253.00;;;9.09;100.00
62708;BME280;48769;51.624;5.886;2023-04-07T00:39:06;101251.19;;;9.11;100.00
62708;BME280;48769;51.624;5.886;2023-04-07T00:41:33;101257.28;;;9.13;100.00
62708;BME280;48769;51.624;5.886;2023-04-07T00:43:59;101258.91;;;9.16;100.00
62708;BME280;48769;51.624;5.886;2023-04-07T00:46:24;101250.88;;;9.19;100.00
62708;BME280;48769;51.624;5.886;2023-04-07T00:48:50;101248.31;;;9.18;100.00
62708;BME280;48769;51.624;5.886;2023-04-07T00:51:15;101248.25;;;9.19;100.00
62708;BME280;48769;51.624;5.886;2023-04-07T00:53:40;101249.25;;;9.17;100.00
62708;BME280;48769;51.624;5.886;2023-04-07T00:56:06;101254.50;;;9.17;100.00
62708;BME280;48769;51.624;5.886;2023-04-07T00:58:32;101250.94;;;9.18;100.00
62708;BME280;48769;51.624;5.886;2023-04-07T01:01:10;101245.81;;;9.15;100.00
62708;BME280;48769;51.624;5.886;2023-04-07T01:03:58;101251.19;;;9.11;100.00
62708;BME280;48769;51.624;5.886;2023-04-07T01:06:29;101249.38;;;9.13;100.00
62708;BME280;48769;51.624;5.886;2023-04-07T01:09:06;101244.09;;;9.13;100.00
62708;BME280;48769;51.624;5.886;2023-04-07T01:11:43;101241.72;;;9.06;100.00
62708;BME280;48769;51.624;5.886;2023-04-07T01:14:13;101250.50;;;9.06;100.00
62708;BME280;48769;51.624;5.886;2023-04-07T01:16:51;101253.00;;;9.09;100.00
62708;BME280;48769;51.624;5.886;2023-04-07T01:19:35;101247.94;;;9.05;100.00
62708;BME280;48769;51.624;5.886;2023-04-07T01:22:06;101247.84;;;9.06;100.00
62708;BME280;48769;51.624;5.886;2023-04-07T01:24:45;101252.28;;;9.06;100.00
62708;BME280;48769;51.624;5.886;2023-04-07T01:29:52;101246.09;;;9.07;100.00
62708;BME280;48769;51.624;5.886;2023-04-07T01:32:19;101257.50;;;9.07;100.00
62708;BME280;48769;51.624;5.886;2023-04-07T01:34:46;101258.41;;;9.06;100.00
62708;BME280;48769;51.624;5.886;2023-04-07T01:37:13;101263.94;;;9.00;100.00
62708;BME280;48769;51.624;5.886;2023-04-07T01:39:39;101262.31;;;8.96;100.00
62708;BME280;48769;51.624;5.886;2023-04-07T01:42:05;101265.03;;;8.95;100.00
62708;BME280;48769;51.624;5.886;2023-04-07T01:44:31;101261.66;;;8.91;100.00
62708;BME280;48769;51.624;5.886;2023-04-07T01:46:58;101264.28;;;8.91;100.00
62708;BME280;48769;51.624;5.886;2023-04-07T01:49:25;101262.53;;;8.90;100.00
62708;BME280;48769;51.624;5.886;2023-04-07T01:51:52;101263.25;;;8.95;100.00
62708;BME280;48769;51.624;5.886;2023-04-07T01:54:18;101254.72;;;8.88;100.00
62708;BME280;48769;51.624;5.886;2023-04-07T01:56:44;101262.81;;;8.84;100.00
62708;BME280;48769;51.624;5.886;2023-04-07T01:59:10;101261.81;;;8.86;100.00
62708;BME280;48769;51.624;5.886;2023-04-07T02:01:35;101274.06;;;8.87;100.00
62708;BME280;48769;51.624;5.886;2023-04-07T02:04:15;101271.66;;;8.81;100.00
62708;BME280;48769;51.624;5.886;2023-04-07T02:06:50;101273.34;;;8.84;100.00
62708;BME280;48769;51.624;5.886;2023-04-07T02:09:19;101273.44;;;8.81;100.00
62708;BME280;48769;51.624;5.886;2023-04-07T02:11:45;101276.00;;;8.82;100.00
62708;BME280;48769;51.624;5.886;2023-04-07T02:14:12;101276.97;;;8.80;100.00
62708;BME280;48769;51.624;5.886;2023-04-07T02:16:40;101281.16;;;8.85;100.00
62708;BME280;48769;51.624;5.886;2023-04-07T02:19:07;101290.00;;;8.84;100.00
62708;BME280;48769;51.624;5.886;2023-04-07T02:21:33;101286.50;;;8.84;100.00
62708;BME280;48769;51.624;5.886;2023-04-07T02:24:05;101294.41;;;8.84;100.00
62708;BME280;48769;51.624;5.886;2023-04-07T02:26:34;101290.84;;;8.85;100.00
62708;BME280;48769;51.624;5.886;2023-04-07T02:29:00;101297.94;;;8.83;100.00
62708;BME280;48769;51.624;5.886;2023-04-07T02:31:26;101295.16;;;8.87;100.00
62708;BME280;48769;51.624;5.886;2023-04-07T02:33:51;101297.91;;;8.84;100.00
62708;BME280;48769;51.624;5.886;2023-04-07T02:36:16;101287.19;;;8.89;100.00
62708;BME280;48769;51.624;5.886;2023-04-07T02:38:42;101290.75;;;8.88;100.00
62708;BME280;48769;51.624;5.886;2023-04-07T02:41:07;101293.81;;;8.76;100.00
62708;BME280;48769;51.624;5.886;2023-04-07T02:43:32;101292.91;;;8.77;100.00
62708;BME280;48769;51.624;5.886;2023-04-07T02:45:58;101291.06;;;8.79;100.00
62708;BME280;48769;51.624;5.886;2023-04-07T02:48:23;101293.81;;;8.76;100.00
62708;BME280;48769;51.624;5.886;2023-04-07T02:50:48;101288.72;;;8.71;100.00
62708;BME280;48769;51.624;5.886;2023-04-07T02:53:13;101288.47;;;8.77;100.00
62708;BME280;48769;51.624;5.886;2023-04-07T02:55:39;101291.13;;;8.77;100.00
62708;BME280;48769;51.624;5.886;2023-04-07T02:58:04;101282.47;;;8.74;100.00
62708;BME280;48769;51.624;5.886;2023-04-07T03:00:29;101285.47;;;8.64;100.00
62708;BME280;48769;51.624;5.886;2023-04-07T03:02:55;101286.25;;;8.66;100.00
62708;BME280;48769;51.624;5.886;2023-04-07T03:05:20;101279.84;;;8.74;100.00
62708;BME280;48769;51.624;5.886;2023-04-07T03:07:46;101285.91;;;8.76;100.00
62708;BME280;48769;51.624;5.886;2023-04-07T03:10:11;101280.66;;;8.76;100.00
62708;BME280;48769;51.624;5.886;2023-04-07T03:12:37;101280.53;;;8.79;100.00
62708;BME280;48769;51.624;5.886;2023-04-07T03:15:02;101284.94;;;8.78;100.00
62708;BME280;48769;51.624;5.886;2023-04-07T03:17:28;101291.88;;;8.81;100.00
62708;BME280;48769;51.624;5.886;2023-04-07T03:19:53;101290.22;;;8.78;100.00
62708;BME280;48769;51.624;5.886;2023-04-07T03:22:18;101284.22;;;8.75;100.00
62708;BME280;48769;51.624;5.886;2023-04-07T03:24:44;101289.59;;;8.72;100.00
62708;BME280;48769;51.624;5.886;2023-04-07T03:27:09;101291.38;;;8.71;100.00
62708;BME280;48769;51.624;5.886;2023-04-07T03:29:35;101289.47;;;8.75;100.00
62708;BME280;48769;51.624;5.886;2023-04-07T03:32:03;101293.00;;;8.74;100.00
62708;BME280;48769;51.624;5.886;2023-04-07T03:34:28;101293.75;;;8.77;100.00
62708;BME280;48769;51.624;5.886;2023-04-07T03:36:54;101294.63;;;8.78;100.00
62708;BME280;48769;51.624;5.886;2023-04-07T03:39:19;101296.47;;;8.76;100.00
62708;BME280;48769;51.624;5.886;2023-04-07T03:41:45;101292.13;;;8.75;100.00
62708;BME280;48769;51.624;5.886;2023-04-07T03:44:10;101297.28;;;8.78;100.00
62708;BME280;48769;51.624;5.886;2023-04-07T03:46:36;101293.75;;;8.77;100.00
62708;BME280;48769;51.624;5.886;2023-04-07T03:49:02;101291.94;;;8.79;100.00
62708;BME280;48769;51.624;5.886;2023-04-07T03:51:27;101305.28;;;8.75;100.00
62708;BME280;48769;51.624;5.886;2023-04-07T03:53:52;101301.63;;;8.79;100.00
62708;BME280;48769;51.624;5.886;2023-04-07T03:56:18;101295.38;;;8.81;100.00
62708;BME280;48769;51.624;5.886;2023-04-07T03:58:43;101300.53;;;8.84;100.00
62708;BME280;48769;51.624;5.886;2023-04-07T04:01:10;101299.53;;;8.87;100.00
62708;BME280;48769;51.624;5.886;2023-04-07T04:03:35;101298.66;;;8.88;100.00
62708;BME280;48769;51.624;5.886;2023-04-07T04:06:01;101305.63;;;8.89;100.00
62708;BME280;48769;51.624;5.886;2023-04-07T04:08:26;101298.56;;;8.89;100.00
62708;BME280;48769;51.624;5.886;2023-04-07T04:10:51;101305.59;;;8.91;100.00
62708;BME280;48769;51.624;5.886;2023-04-07T04:13:17;101303.00;;;8.89;100.00
62708;BME280;48769;51.624;5.886;2023-04-07T04:15:42;101303.94;;;8.86;100.00
62708;BME280;48769;51.624;5.886;2023-04-07T04:18:07;101312.03;;;8.82;100.00
62708;BME280;48769;51.624;5.886;2023-04-07T04:20:33;101313.94;;;8.78;100.00
62708;BME280;48769;51.624;5.886;2023-04-07T04:22:58;101315.59;;;8.81;100.00
62708;BME280;48769;51.624;5.886;2023-04-07T04:25:24;101320.75;;;8.84;100.00
62708;BME280;48769;51.624;5.886;2023-04-07T04:27:49;101324.19;;;8.86;100.00
62708;BME280;48769;51.624;5.886;2023-04-07T04:30:14;101324.28;;;8.83;100.00
62708;BME280;48769;51.624;5.886;2023-04-07T04:32:40;101326.06;;;8.82;100.00
62708;BME280;48769;51.624;5.886;2023-04-07T04:35:05;101319.00;;;8.83;100.00
62708;BME280;48769;51.624;5.886;2023-04-07T04:37:31;101322.78;;;8.76;100.00
62708;BME280;48769;51.624;5.886;2023-04-07T04:39:56;101324.50;;;8.77;100.00
62708;BME280;48769;51.624;5.886;2023-04-07T04:42:21;101327.00;;;8.81;100.00
62708;BME280;48769;51.624;5.886;2023-04-07T04:44:47;101324.28;;;8.83;100.00
62708;BME280;48769;51.624;5.886;2023-04-07T04:47:12;101320.88;;;8.81;100.00
62708;BME280;48769;51.624;5.886;2023-04-07T04:49:38;101322.47;;;8.85;100.00
62708;BME280;48769;51.624;5.886;2023-04-07T04:52:03;101327.72;;;8.85;100.00
62708;BME280;48769;51.624;5.886;2023-04-07T04:54:29;101330.38;;;8.85;100.00
62708;BME280;48769;51.624;5.886;2023-04-07T04:56:54;101333.00;;;8.85;100.00
62708;BME280;48769;51.624;5.886;2023-04-07T04:59:22;101331.28;;;8.84;100.00
62708;BME280;48769;51.624;5.886;2023-04-07T05:01:47;101337.56;;;8.80;100.00
62708;BME280;48769;51.624;5.886;2023-04-07T05:04:12;101341.69;;;8.87;100.00
62708;BME280;48769;51.624;5.886;2023-04-07T05:06:38;101340.78;;;8.88;100.00
62708;BME280;48769;51.624;5.886;2023-04-07T05:09:03;101351.28;;;8.89;100.00
62708;BME280;48769;51.624;5.886;2023-04-07T05:11:28;101347.66;;;8.92;100.00
62708;BME280;48769;51.624;5.886;2023-04-07T05:13:54;101350.31;;;8.92;100.00
62708;BME280;48769;51.624;5.886;2023-04-07T05:16:19;101349.38;;;8.93;100.00
62708;BME280;48769;51.624;5.886;2023-04-07T05:18:44;101348.59;;;8.91;100.00
62708;BME280;48769;51.624;5.886;2023-04-07T05:21:10;101357.25;;;8.95;100.00
62708;BME280;48769;51.624;5.886;2023-04-07T05:23:38;101341.47;;;8.93;100.00
62708;BME280;48769;51.624;5.886;2023-04-07T05:26:03;101351.13;;;8.94;100.00
62708;BME280;48769;51.624;5.886;2023-04-07T05:28:29;101353.75;;;8.94;100.00
62708;BME280;48769;51.624;5.886;2023-04-07T05:30:54;101351.84;;;8.98;100.00
62708;BME280;48769;51.624;5.886;2023-04-07T05:33:19;101358.03;;;8.97;100.00
62708;BME280;48769;51.624;5.886;2023-04-07T05:35:45;101364.97;;;8.99;100.00
62708;BME280;48769;51.624;5.886;2023-04-07T05:38:11;101357.88;;;9.01;100.00
62708;BME280;48769;51.624;5.886;2023-04-07T05:40:36;101357.91;;;9.00;100.00
62708;BME280;48769;51.624;5.886;2023-04-07T05:43:02;101366.81;;;8.97;100.00
62708;BME280;48769;51.624;5.886;2023-04-07T05:45:27;101368.41;;;9.01;100.00
62708;BME280;48769;51.624;5.886;2023-04-07T05:47:52;101371.91;;;9.02;100.00
62708;BME280;48769;51.624;5.886;2023-04-07T05:50:18;101376.34;;;9.00;100.00
62708;BME280;48769;51.624;5.886;2023-04-07T05:52:43;101373.72;;;9.00;100.00
62708;BME280;48769;51.624;5.886;2023-04-07T05:55:08;101371.91;;;9.02;100.00
62708;BME280;48769;51.624;5.886;2023-04-07T05:57:34;101380.88;;;8.96;100.00
62708;BME280;48769;51.624;5.886;2023-04-07T05:59:59;101375.94;;;8.87;100.00
62708;BME280;48769;51.624;5.886;2023-04-07T06:02:25;101384.84;;;8.84;100.00
62708;BME280;48769;51.624;5.886;2023-04-07T06:04:50;101383.81;;;8.88;100.00
62708;BME280;48769;51.624;5.886;2023-04-07T06:07:15;101391.75;;;8.87;100.00
62708;BME280;48769;51.624;5.886;2023-04-07T06:09:41;101396.03;;;8.91;100.00
62708;BME280;48769;51.624;5.886;2023-04-07T06:12:07;101395.00;;;8.95;100.00
62708;BME280;48769;51.624;5.886;2023-04-07T06:14:33;101391.53;;;8.93;100.00
62708;BME280;48769;51.624;5.886;2023-04-07T06:16:58;101395.09;;;8.92;100.00
62708;BME280;48769;51.624;5.886;2023-04-07T06:19:24;101390.69;;;8.93;100.00
62708;BME280;48769;51.624;5.886;2023-04-07T06:21:51;101396.81;;;8.93;100.00
62708;BME280;48769;51.624;5.886;2023-04-07T06:24:16;101396.91;;;8.90;100.00
62708;BME280;48769;51.624;5.886;2023-04-07T06:26:43;101398.75;;;8.88;100.00
62708;BME280;48769;51.624;5.886;2023-04-07T06:29:09;101401.41;;;8.88;100.00
62708;BME280;48769;51.624;5.886;2023-04-07T06:31:34;101395.31;;;8.86;100.00
62708;BME280;48769;51.624;5.886;2023-04-07T06:34:00;101396.88;;;8.92;100.00
62708;BME280;48769;51.624;5.886;2023-04-07T06:36:26;101403.63;;;8.99;100.00
62708;BME280;48769;51.624;5.886;2023-04-07T06:38:51;101410.50;;;9.03;100.00
62708;BME280;48769;51.624;5.886;2023-04-07T06:41:17;101410.47;;;9.04;100.00
62708;BME280;48769;51.624;5.886;2023-04-07T06:43:47;101406.69;;;9.11;100.00
62708;BME280;48769;51.624;5.886;2023-04-07T06:46:13;101411.97;;;9.11;100.00
62708;BME280;48769;51.624;5.886;2023-04-07T06:48:39;101418.38;;;9.04;100.00
62708;BME280;48769;51.624;5.886;2023-04-07T06:51:04;101421.81;;;9.06;100.00
62708;BME280;48769;51.624;5.886;2023-04-07T06:53:30;101427.13;;;9.05;100.00
62708;BME280;48769;51.624;5.886;2023-04-07T06:56:06;101420.81;;;9.10;100.00
62708;BME280;48769;51.624;5.886;2023-04-07T06:58:32;101421.53;;;9.14;100.00
62708;BME280;48769;51.624;5.886;2023-04-07T07:00:59;101427.72;;;9.13;100.00
62708;BME280;48769;51.624;5.886;2023-04-07T07:03:25;101424.19;;;9.14;100.00
62708;BME280;48769;51.624;5.886;2023-04-07T07:05:53;101428.59;;;9.13;100.00
62708;BME280;48769;51.624;5.886;2023-04-07T07:08:18;101435.69;;;9.11;100.00
62708;BME280;48769;51.624;5.886;2023-04-07T07:10:44;101432.00;;;9.16;100.00
62708;BME280;48769;51.624;5.886;2023-04-07T07:13:09;101423.31;;;9.13;100.00
62708;BME280;48769;51.624;5.886;2023-04-07T07:15:34;101429.34;;;9.17;100.00
62708;BME280;48769;51.624;5.886;2023-04-07T07:17:59;101435.34;;;9.21;100.00
62708;BME280;48769;51.624;5.886;2023-04-07T07:20:25;101432.13;;;9.12;100.00
62708;BME280;48769;51.624;5.886;2023-04-07T07:22:50;101438.09;;;9.18;100.00
62708;BME280;48769;51.624;5.886;2023-04-07T07:25:15;101444.84;;;9.26;100.00
62708;BME280;48769;51.624;5.886;2023-04-07T07:27:41;101446.88;;;9.18;100.00
62708;BME280;48769;51.624;5.886;2023-04-07T07:30:07;101448.66;;;9.18;100.00
62708;BME280;48769;51.624;5.886;2023-04-07T07:32:32;101456.38;;;9.22;100.00
62708;BME280;48769;51.624;5.886;2023-04-07T07:34:58;101452.09;;;9.20;100.00
62708;BME280;48769;51.624;5.886;2023-04-07T07:37:23;101451.63;;;9.32;100.00
62708;BME280;48769;51.624;5.886;2023-04-07T07:39:48;101460.13;;;9.40;100.00
62708;BME280;48769;51.624;5.886;2023-04-07T07:42:13;101464.38;;;9.44;100.00
62708;BME280;48769;51.624;5.886;2023-04-07T07:44:39;101459.00;;;9.47;100.00
62708;BME280;48769;51.624;5.886;2023-04-07T07:47:04;101461.63;;;9.47;100.00
62708;BME280;48769;51.624;5.886;2023-04-07T07:49:30;101462.56;;;9.46;100.00
62708;BME280;48769;51.624;5.886;2023-04-07T07:51:55;101465.97;;;9.48;100.00
62708;BME280;48769;51.624;5.886;2023-04-07T07:54:21;101474.81;;;9.47;100.00
62708;BME280;48769;51.624;5.886;2023-04-07T07:56:46;101476.41;;;9.51;100.00
62708;BME280;48769;51.624;5.886;2023-04-07T07:59:12;101469.44;;;9.50;100.00
62708;BME280;48769;51.624;5.886;2023-04-07T08:01:37;101472.88;;;9.52;100.00
62708;BME280;48769;51.624;5.886;2023-04-07T08:04:03;101477.78;;;9.62;100.00
62708;BME280;48769;51.624;5.886;2023-04-07T08:06:28;101475.84;;;9.67;100.00
62708;BME280;48769;51.624;5.886;2023-04-07T08:08:55;101480.91;;;9.73;100.00
62708;BME280;48769;51.624;5.886;2023-04-07T08:11:21;101478.56;;;9.65;100.00
62708;BME280;48769;51.624;5.886;2023-04-07T08:13:47;101478.16;;;9.76;100.00
62708;BME280;48769;51.624;5.886;2023-04-07T08:16:12;101488.63;;;9.77;100.00
62708;BME280;48769;51.624;5.886;2023-04-07T08:18:38;101483.69;;;9.92;100.00
62708;BME280;48769;51.624;5.886;2023-04-07T08:21:04;101484.31;;;9.98;100.00
62708;BME280;48769;51.624;5.886;2023-04-07T08:23:30;101489.91;;;10.13;100.00
62708;BME280;48769;51.624;5.886;2023-04-07T08:25:55;101491.00;;;10.31;100.00
62708;BME280;48769;51.624;5.886;2023-04-07T08:28:21;101485.91;;;10.48;100.00
62708;BME280;48769;51.624;5.886;2023-04-07T08:30:47;101493.84;;;10.68;100.00
62708;BME280;48769;51.624;5.886;2023-04-07T08:33:12;101504.91;;;10.78;100.00
62708;BME280;48769;51.624;5.886;2023-04-07T08:35:38;101501.06;;;10.85;100.00
62708;BME280;48769;51.624;5.886;2023-04-07T08:38:03;101508.00;;;10.88;100.00
62708;BME280;48769;51.624;5.886;2023-04-07T08:40:29;101510.19;;;10.78;100.00
62708;BME280;48769;51.624;5.886;2023-04-07T08:42:57;101515.00;;;10.68;100.00
62708;BME280;48769;51.624;5.886;2023-04-07T08:45:25;101512.44;;;10.67;100.00
62708;BME280;48769;51.624;5.886;2023-04-07T08:47:54;101513.19;;;10.69;100.00
62708;BME280;48769;51.624;5.886;2023-04-07T08:50:21;101515.72;;;10.72;100.00
62708;BME280;48769;51.624;5.886;2023-04-07T08:52:53;101516.31;;;10.79;100.00
62708;BME280;48769;51.624;5.886;2023-04-07T08:55:19;101519.97;;;10.76;100.00
62708;BME280;48769;51.624;5.886;2023-04-07T08:57:45;101514.81;;;10.73;100.00
62708;BME280;48769;51.624;5.886;2023-04-07T09:00:11;101526.16;;;10.75;100.00
62708;BME280;48769;51.624;5.886;2023-04-07T09:02:39;101524.72;;;10.68;100.00
62708;BME280;48769;51.624;5.886;2023-04-07T09:05:07;101527.72;;;10.59;100.00
62708;BME280;48769;51.624;5.886;2023-04-07T09:07:36;101531.00;;;10.43;100.00
62708;BME280;48769;51.624;5.886;2023-04-07T09:10:03;101539.94;;;10.39;100.00
62708;BME280;48769;51.624;5.886;2023-04-07T09:12:32;101528.63;;;10.36;100.00
62708;BME280;48769;51.624;5.886;2023-04-07T09:14:57;101535.78;;;10.34;100.00
62708;BME280;48769;51.624;5.886;2023-04-07T09:17:27;101533.94;;;10.36;100.00
62708;BME280;48769;51.624;5.886;2023-04-07T09:19:57;101532.53;;;10.27;100.00
62708;BME280;48769;51.624;5.886;2023-04-07T09:22:39;101536.44;;;10.39;100.00
62708;BME280;48769;51.624;5.886;2023-04-07T09:27:36;101542.78;;;10.35;100.00
62708;BME280;48769;51.624;5.886;2023-04-07T09:30:12;101541.28;;;10.49;100.00
62708;BME280;48769;51.624;5.886;2023-04-07T09:32:41;101539.69;;;10.45;100.00
62708;BME280;48769;51.624;5.886;2023-04-07T09:35:07;101544.88;;;10.48;100.00
62708;BME280;48769;51.624;5.886;2023-04-07T09:37:32;101544.53;;;10.56;100.00
62708;BME280;48769;51.624;5.886;2023-04-07T09:39:58;101543.44;;;10.62;100.00
62708;BME280;48769;51.624;5.886;2023-04-07T09:42:26;101545.22;;;10.61;100.00
62708;BME280;48769;51.624;5.886;2023-04-07T09:44:54;101542.28;;;10.69;100.00
62708;BME280;48769;51.624;5.886;2023-04-07T09:47:26;101542.22;;;10.70;100.00
62708;BME280;48769;51.624;5.886;2023-04-07T09:49:53;101544.13;;;10.67;100.00
62708;BME280;48769;51.624;5.886;2023-04-07T09:52:23;101541.38;;;10.70;100.00
62708;BME280;48769;51.624;5.886;2023-04-07T09:54:49;101540.31;;;10.74;100.00
62708;BME280;48769;51.624;5.886;2023-04-07T09:57:16;101548.31;;;10.72;100.00
62708;BME280;48769;51.624;5.886;2023-04-07T09:59:43;101548.16;;;10.75;100.00
62708;BME280;48769;51.624;5.886;2023-04-07T10:02:09;101547.06;;;10.81;100.00
62708;BME280;48769;51.624;5.886;2023-04-07T10:04:36;101551.97;;;10.90;100.00
62708;BME280;48769;51.624;5.886;2023-04-07T10:07:01;101549.31;;;10.90;100.00
62708;BME280;48769;51.624;5.886;2023-04-07T10:09:28;101550.44;;;10.85;100.00
62708;BME280;48769;51.624;5.886;2023-04-07T10:11:55;101552.34;;;10.81;100.00
62708;BME280;48769;51.624;5.886;2023-04-07T10:14:27;101552.09;;;10.87;100.00
62708;BME280;48769;51.624;5.886;2023-04-07T10:16:54;101548.41;;;10.91;100.00
62708;BME280;48769;51.624;5.886;2023-04-07T10:19:20;101555.28;;;10.95;100.00
62708;BME280;48769;51.624;5.886;2023-04-07T10:21:48;101558.59;;;11.00;100.00
62708;BME280;48769;51.624;5.886;2023-04-07T10:24:43;101556.50;;;11.09;100.00
62708;BME280;48769;51.624;5.886;2023-04-07T10:27:13;101558.09;;;11.13;100.00
62708;BME280;48769;51.624;5.886;2023-04-07T10:29:42;101557.00;;;10.96;100.00
62708;BME280;48769;51.624;5.886;2023-04-07T10:32:09;101556.19;;;10.94;100.00
62708;BME280;48769;51.624;5.886;2023-04-07T10:34:54;101557.63;;;10.81;100.00
62708;BME280;48769;51.624;5.886;2023-04-07T10:37:22;101562.66;;;10.87;100.00
62708;BME280;48769;51.624;5.886;2023-04-07T10:39:50;101571.66;;;10.83;100.00
62708;BME280;48769;51.624;5.886;2023-04-07T10:45:04;101569.03;;;11.04;100.00
62708;BME280;48769;51.624;5.886;2023-04-07T10:47:30;101566.00;;;10.92;100.00
62708;BME280;48769;51.624;5.886;2023-04-07T10:50:15;101573.72;;;10.97;100.00
62708;BME280;48769;51.624;5.886;2023-04-07T10:52:43;101567.13;;;11.07;100.00
62708;BME280;48769;51.624;5.886;2023-04-07T10:55:27;101570.25;;;11.17;100.00
62708;BME280;48769;51.624;5.886;2023-04-07T11:03:36;101579.63;;;11.04;100.00
62708;BME280;48769;51.624;5.886;2023-04-07T11:06:12;101583.06;;;11.06;100.00
62708;BME280;48769;51.624;5.886;2023-04-07T11:08:46;101587.75;;;10.99;100.00
62708;BME280;48769;51.624;5.886;2023-04-07T11:11:13;101582.88;;;10.88;100.00
62708;BME280;48769;51.624;5.886;2023-04-07T11:13:49;101586.13;;;10.95;100.00
62708;BME280;48769;51.624;5.886;2023-04-07T11:16:17;101588.28;;;10.85;100.00
62708;BME280;48769;51.624;5.886;2023-04-07T11:18:44;101596.84;;;10.92;100.00
62708;BME280;48769;51.624;5.886;2023-04-07T11:21:10;101596.31;;;10.84;100.00
62708;BME280;48769;51.624;5.886;2023-04-07T11:23:43;101593.84;;;10.79;100.00
62708;BME280;48769;51.624;5.886;2023-04-07T11:26:11;101600.13;;;10.76;100.00
62708;BME280;48769;51.624;5.886;2023-04-07T11:28:50;101595.44;;;10.83;100.00
62708;BME280;48769;51.624;5.886;2023-04-07T11:31:26;101597.09;;;10.86;100.00
62708;BME280;48769;51.624;5.886;2023-04-07T11:33:56;101603.50;;;10.80;100.00
62708;BME280;48769;51.624;5.886;2023-04-07T11:36:39;101603.63;;;10.77;100.00
62708;BME280;48769;51.624;5.886;2023-04-07T11:39:05;101608.16;;;10.73;100.00
62708;BME280;48769;51.624;5.886;2023-04-07T11:41:32;101611.78;;;10.71;100.00
62708;BME280;48769;51.624;5.886;2023-04-07T11:44:09;101606.31;;;10.75;100.00
62708;BME280;48769;51.624;5.886;2023-04-07T11:46:35;101606.56;;;10.69;100.00
62708;BME280;48769;51.624;5.886;2023-04-07T11:49:13;101614.31;;;10.74;100.00
62708;BME280;48769;51.624;5.886;2023-04-07T11:51:42;101613.56;;;10.70;100.00
62708;BME280;48769;51.624;5.886;2023-04-07T11:54:08;101611.53;;;10.77;100.00
62708;BME280;48769;51.624;5.886;2023-04-07T11:56:43;101615.78;;;10.81;100.00
62708;BME280;48769;51.624;5.886;2023-04-07T11:59:20;101619.22;;;10.83;100.00
62708;BME280;48769;51.624;5.886;2023-04-07T12:01:47;101618.25;;;10.86;100.00
62708;BME280;48769;51.624;5.886;2023-04-07T12:04:13;101622.28;;;10.94;100.00
62708;BME280;48769;51.624;5.886;2023-04-07T12:06:40;101617.50;;;11.04;100.00
62708;BME280;48769;51.624;5.886;2023-04-07T12:09:28;101621.53;;;11.13;100.00
62708;BME280;48769;51.624;5.886;2023-04-07T12:11:54;101627.44;;;11.19;100.00
62708;BME280;48769;51.624;5.886;2023-04-07T12:14:20;101626.22;;;11.28;100.00
62708;BME280;48769;51.624;5.886;2023-04-07T12:16:45;101631.63;;;11.25;100.00
62708;BME280;48769;51.624;5.886;2023-04-07T12:19:11;101635.25;;;11.22;100.00
62708;BME280;48769;51.624;5.886;2023-04-07T12:21:37;101636.19;;;11.21;100.00
62708;BME280;48769;51.624;5.886;2023-04-07T12:24:02;101642.56;;;11.16;100.00
62708;BME280;48769;51.624;5.886;2023-04-07T12:26:28;101646.28;;;11.12;100.00
62708;BME280;48769;51.624;5.886;2023-04-07T12:28:53;101649.91;;;11.09;100.00
62708;BME280;48769;51.624;5.886;2023-04-07T12:31:19;101651.69;;;11.09;100.00
62708;BME280;48769;51.624;5.886;2023-04-07T12:33:44;101650.56;;;11.14;100.00
62708;BME280;48769;51.624;5.886;2023-04-07T12:36:10;101650.63;;;11.13;100.00
62708;BME280;48769;51.624;5.886;2023-04-07T12:38:36;101651.38;;;10.94;100.00
62708;BME280;48769;51.624;5.886;2023-04-07T12:41:01;101653.66;;;11.04;100.00
62708;BME280;48769;51.624;5.886;2023-04-07T12:43:28;101657.09;;;11.06;100.00
62708;BME280;48769;51.624;5.886;2023-04-07T12:45:54;101658.56;;;11.13;100.00
62708;BME280;48769;51.624;5.886;2023-04-07T12:48:19;101652.91;;;11.22;100.00
62708;BME280;48769;51.624;5.886;2023-04-07T12:50:45;101656.19;;;11.27;100.00
62708;BME280;48769;51.624;5.886;2023-04-07T12:53:10;101654.13;;;11.35;100.00
62708;BME280;48769;51.624;5.886;2023-04-07T12:55:36;101662.06;;;11.56;100.00
62708;BME280;48769;51.624;5.886;2023-04-07T12:58:01;101661.88;;;11.81;100.00